createdAt,value
2018-12-20T00:02:11.796Z,47.10
2018-12-20T00:04:44.191Z,41.50
2018-12-20T00:07:15.861Z,32.97
2018-12-20T00:09:47.042Z,37.10
2018-12-20T00:12:18.114Z,35.07
2018-12-20T00:14:49.094Z,52.10
2018-12-20T00:17:25.337Z,42.03
2018-12-20T00:19:56.322Z,38.07
2018-12-20T00:22:27.305Z,40.77
2018-12-20T00:24:58.221Z,41.23
2018-12-20T00:27:29.493Z,44.03
2018-12-20T00:30:00.631Z,42.37
2018-12-20T00:32:31.908Z,50.50
2018-12-20T00:35:02.937Z,33.97
2018-12-20T00:37:33.948Z,43.20
2018-12-20T00:40:06.597Z,49.17
2018-12-20T00:42:38.026Z,46.53
2018-12-20T00:45:09.129Z,45.93
2018-12-20T00:47:40.156Z,45.70
2018-12-20T00:50:11.256Z,34.77
2018-12-20T00:52:42.178Z,33.03
2018-12-20T00:55:13.583Z,34.03
2018-12-20T00:57:44.547Z,33.20
2018-12-20T01:00:15.714Z,33.63
2018-12-20T01:02:46.826Z,35.20
2018-12-20T01:05:17.792Z,29.03
2018-12-20T01:07:48.826Z,37.60
2018-12-20T01:10:19.969Z,32.37
2018-12-20T01:12:50.951Z,32.77
2018-12-20T01:15:21.927Z,32.93
2018-12-20T01:17:52.950Z,37.50
2018-12-20T01:20:23.959Z,46.30
2018-12-20T01:22:55.145Z,45.83
2018-12-20T01:25:26.007Z,44.17
2018-12-20T01:27:56.800Z,58.30
2018-12-20T01:30:27.911Z,80.90
2018-12-20T01:32:59.073Z,66.27
2018-12-20T01:35:29.912Z,78.50
2018-12-20T01:38:00.756Z,70.53
2018-12-20T01:40:31.797Z,66.87
2018-12-20T01:43:02.686Z,64.10
2018-12-20T01:45:33.413Z,68.80
2018-12-20T01:48:04.454Z,58.97
2018-12-20T01:50:35.561Z,55.20
2018-12-20T01:53:06.660Z,58.87
2018-12-20T01:55:37.574Z,67.97
2018-12-20T01:58:08.526Z,57.10
2018-12-20T02:00:39.762Z,57.73
2018-12-20T02:03:11.000Z,65.50
2018-12-20T02:05:42.083Z,51.77
2018-12-20T02:08:13.225Z,58.93
2018-12-20T02:10:44.095Z,65.60
2018-12-20T02:13:14.833Z,58.57
2018-12-20T02:15:45.718Z,65.43
2018-12-20T02:18:16.832Z,71.00
2018-12-20T02:20:47.688Z,74.47
2018-12-20T02:23:18.582Z,63.47
2018-12-20T02:25:49.519Z,68.63
2018-12-20T02:28:20.557Z,78.00
2018-12-20T02:30:51.801Z,66.37
2018-12-20T02:33:22.847Z,71.27
2018-12-20T02:35:53.949Z,63.30
2018-12-20T02:38:24.894Z,53.83
2018-12-20T02:40:55.873Z,65.30
2018-12-20T02:43:26.774Z,57.07
2018-12-20T02:45:57.573Z,56.93
2018-12-20T02:48:28.281Z,58.97
2018-12-20T02:50:59.056Z,46.97
2018-12-20T02:53:30.246Z,58.23
2018-12-20T02:56:01.699Z,56.13
2018-12-20T02:58:32.907Z,48.30
2018-12-20T03:01:03.816Z,54.10
2018-12-20T03:03:34.641Z,70.07
2018-12-20T03:06:05.898Z,60.63
2018-12-20T03:08:36.840Z,59.87
2018-12-20T03:11:08.056Z,69.27
2018-12-20T03:13:39.013Z,71.47
2018-12-20T03:16:09.986Z,55.13
2018-12-20T03:18:40.849Z,66.53
2018-12-20T03:21:11.733Z,69.23
2018-12-20T03:23:42.696Z,60.30
2018-12-20T03:26:13.526Z,58.73
2018-12-20T03:28:44.451Z,67.53
2018-12-20T03:31:15.645Z,91.32
2018-12-20T03:33:47.319Z,75.30
2018-12-20T03:36:18.339Z,66.43
2018-12-20T03:38:49.299Z,75.47
2018-12-20T03:41:20.212Z,71.90
2018-12-20T03:43:51.296Z,75.67
2018-12-20T03:46:22.578Z,80.70
2018-12-20T03:48:53.493Z,79.47
2018-12-20T03:51:24.641Z,75.93
2018-12-20T03:53:55.728Z,69.80
2018-12-20T03:56:26.863Z,68.23
2018-12-20T03:58:57.959Z,72.77
2018-12-20T04:01:28.910Z,57.43
2018-12-20T04:03:59.836Z,53.97
2018-12-20T04:06:30.849Z,63.53
2018-12-20T04:09:02.269Z,64.90
2018-12-20T04:11:33.792Z,60.00
2018-12-20T04:14:04.774Z,54.83
2018-12-20T04:16:35.734Z,48.87
2018-12-20T04:19:06.791Z,45.03
2018-12-20T04:21:37.871Z,52.00
2018-12-20T04:24:09.216Z,43.37
2018-12-20T04:26:40.495Z,44.30
2018-12-20T04:29:11.460Z,47.27
2018-12-20T04:31:42.429Z,51.90
2018-12-20T04:34:13.548Z,56.37
2018-12-20T04:36:44.697Z,49.43
2018-12-20T04:39:15.599Z,51.97
2018-12-20T04:41:46.662Z,50.90
2018-12-20T04:44:17.484Z,54.57
2018-12-20T04:46:48.602Z,69.10
2018-12-20T04:49:19.664Z,59.67
2018-12-20T04:51:56.499Z,53.37
2018-12-20T04:54:28.188Z,61.70
2018-12-20T04:56:59.441Z,63.57
2018-12-20T04:59:30.599Z,59.80
2018-12-20T05:02:01.564Z,61.03
2018-12-20T05:04:32.570Z,64.97
2018-12-20T05:07:03.845Z,62.20
2018-12-20T05:09:35.141Z,57.23
2018-12-20T05:12:06.176Z,50.23
2018-12-20T05:14:37.860Z,48.80
2018-12-20T05:17:09.183Z,43.70
2018-12-20T05:19:40.398Z,53.33
2018-12-20T05:22:11.616Z,47.73
2018-12-20T05:24:42.869Z,45.23
2018-12-20T05:27:14.021Z,43.53
2018-12-20T05:29:45.399Z,39.50
2018-12-20T05:32:16.362Z,46.40
2018-12-20T05:34:47.507Z,51.80
2018-12-20T05:37:18.499Z,35.90
2018-12-20T05:42:11.354Z,49.93
2018-12-20T05:44:43.480Z,53.13
2018-12-20T05:47:15.583Z,54.20
2018-12-20T05:49:47.362Z,59.33
2018-12-20T05:52:19.505Z,67.87
2018-12-20T05:54:51.534Z,57.77
2018-12-20T05:57:23.526Z,58.30
2018-12-20T05:59:56.037Z,61.73
2018-12-20T06:02:28.576Z,65.97
2018-12-20T06:05:00.925Z,68.20
2018-12-20T06:07:33.266Z,64.13
2018-12-20T06:10:05.438Z,61.00
2018-12-20T06:12:38.193Z,67.57
2018-12-20T06:15:10.740Z,68.77
2018-12-20T06:17:42.597Z,67.60
2018-12-20T06:20:15.168Z,81.00
2018-12-20T06:22:47.336Z,61.93
2018-12-20T06:25:21.302Z,64.23
2018-12-20T06:27:54.012Z,61.80
2018-12-20T06:30:25.849Z,59.20
2018-12-20T06:32:58.024Z,68.63
2018-12-20T06:35:29.986Z,79.43
2018-12-20T06:38:02.431Z,79.97
2018-12-20T06:40:34.282Z,70.17
2018-12-20T06:43:06.301Z,118.00
2018-12-20T06:45:38.218Z,168.17
2018-12-20T06:48:10.309Z,137.87
2018-12-20T06:50:42.660Z,93.53
2018-12-20T06:53:15.512Z,81.73
2018-12-20T06:55:47.691Z,80.10
2018-12-20T06:58:20.165Z,64.47
2018-12-20T07:00:52.337Z,71.60
2018-12-20T07:03:24.403Z,74.23
2018-12-20T07:05:56.324Z,85.63
2018-12-20T07:08:28.199Z,76.20
2018-12-20T07:11:00.125Z,73.73
2018-12-20T07:13:32.261Z,64.20
2018-12-20T07:16:04.736Z,69.27
2018-12-20T07:18:37.055Z,77.00
2018-12-20T07:21:09.223Z,73.70
2018-12-20T07:23:41.183Z,72.53
2018-12-20T07:26:13.240Z,71.23
2018-12-20T07:28:45.329Z,74.73
2018-12-20T07:31:17.722Z,95.97
2018-12-20T07:33:49.827Z,75.13
2018-12-20T07:36:22.187Z,69.13
2018-12-20T07:38:54.320Z,74.93
2018-12-20T07:41:26.684Z,80.47
2018-12-20T07:43:58.538Z,70.47
2018-12-20T07:46:37.540Z,90.27
2018-12-20T07:49:05.296Z,96.17
2018-12-20T07:51:37.573Z,98.13
2018-12-20T07:54:09.641Z,112.53
2018-12-20T07:56:42.139Z,95.17
2018-12-20T07:59:14.597Z,76.53
2018-12-20T08:01:46.761Z,105.00
2018-12-20T08:04:19.130Z,99.40
2018-12-20T08:06:51.410Z,75.07
2018-12-20T08:09:23.772Z,81.17
2018-12-20T08:11:56.080Z,87.30
2018-12-20T08:14:28.338Z,86.67
2018-12-20T08:17:00.455Z,74.87
2018-12-20T08:19:36.448Z,108.37
2018-12-20T08:22:06.598Z,97.97
2018-12-20T08:24:38.502Z,99.97
2018-12-20T08:27:10.333Z,96.63
2018-12-20T08:29:44.523Z,115.90
2018-12-20T08:32:16.627Z,97.93
2018-12-20T08:34:49.033Z,103.83
2018-12-20T08:37:21.118Z,92.67
2018-12-20T08:39:53.276Z,117.20
2018-12-20T08:42:25.517Z,124.03
2018-12-20T08:44:58.989Z,108.83
2018-12-20T08:47:31.226Z,104.50
2018-12-20T08:50:03.062Z,89.27
2018-12-20T08:52:36.083Z,105.37
2018-12-20T08:55:08.509Z,114.47
2018-12-20T08:57:40.507Z,92.90
2018-12-20T09:00:13.106Z,98.80
2018-12-20T09:02:46.086Z,102.53
2018-12-20T09:05:18.394Z,116.37
2018-12-20T09:07:50.805Z,101.63
2018-12-20T09:10:23.386Z,104.60
2018-12-20T09:12:56.262Z,130.93
2018-12-20T09:15:29.212Z,110.63
2018-12-20T09:18:01.476Z,126.67
2018-12-20T09:20:34.502Z,107.27
2018-12-20T09:23:07.234Z,138.90
2018-12-20T09:25:39.830Z,104.53
2018-12-20T09:28:11.981Z,97.40
2018-12-20T09:30:44.381Z,97.23
2018-12-20T09:33:16.528Z,106.33
2018-12-20T09:35:48.892Z,119.47
2018-12-20T09:38:20.991Z,92.70
2018-12-20T09:40:53.248Z,94.87
2018-12-20T09:43:25.401Z,98.00
2018-12-20T09:45:57.319Z,81.57
2018-12-20T09:48:29.415Z,105.37
2018-12-20T09:51:01.699Z,96.30
2018-12-20T09:53:34.993Z,88.17
2018-12-20T09:56:09.000Z,94.63
2018-12-20T09:58:42.387Z,92.47
2018-12-20T10:01:15.646Z,93.00
2018-12-20T10:03:48.741Z,94.07
2018-12-20T10:06:23.115Z,95.00
2018-12-20T10:08:58.579Z,86.27
2018-12-20T10:11:30.820Z,90.87
2018-12-20T10:14:04.340Z,119.83
2018-12-20T10:16:39.578Z,101.93
2018-12-20T10:19:14.149Z,99.50
2018-12-20T10:21:48.392Z,104.17
2018-12-20T10:24:22.060Z,102.47
2018-12-20T10:26:56.265Z,93.97
2018-12-20T10:29:29.727Z,117.63
2018-12-20T10:32:04.195Z,113.73
2018-12-20T10:34:37.682Z,129.80
2018-12-20T10:37:11.856Z,110.70
2018-12-20T10:39:44.185Z,118.20
2018-12-20T10:42:17.108Z,120.07
2018-12-20T10:44:51.906Z,117.50
2018-12-20T10:47:29.191Z,120.27
2018-12-20T10:50:03.140Z,126.10
2018-12-20T10:52:36.133Z,96.77
2018-12-20T10:55:08.692Z,113.40
2018-12-20T10:57:42.157Z,124.03
2018-12-20T11:00:15.984Z,92.70
2018-12-20T11:02:54.784Z,135.03
2018-12-20T11:06:09.992Z,111.67
2018-12-20T11:08:47.523Z,136.83
2018-12-20T11:11:22.988Z,112.53
2018-12-20T11:13:56.686Z,106.13
2018-12-20T11:16:33.854Z,101.57
2018-12-20T11:19:07.837Z,109.23
2018-12-20T11:21:41.213Z,121.13
2018-12-20T11:24:13.989Z,103.90
2018-12-20T11:26:48.498Z,86.90
2018-12-20T11:29:21.943Z,100.67
2018-12-20T11:31:55.882Z,104.13
2018-12-20T11:34:29.370Z,169.07
2018-12-20T11:37:03.450Z,131.17
2018-12-20T11:39:36.636Z,109.50
2018-12-20T11:42:09.580Z,86.43
2018-12-20T11:44:42.277Z,94.50
2018-12-20T11:47:21.226Z,86.10
2018-12-20T11:49:55.136Z,95.67
2018-12-20T11:52:29.160Z,89.57
2018-12-20T11:55:01.556Z,82.57
2018-12-20T11:57:35.596Z,97.93
2018-12-20T12:00:10.544Z,108.43
2018-12-20T12:02:42.984Z,119.47
2018-12-20T12:05:15.368Z,107.83
2018-12-20T12:07:47.851Z,110.07
2018-12-20T12:10:20.052Z,105.50
2018-12-20T12:12:52.209Z,105.63
2018-12-20T12:15:26.509Z,113.00
2018-12-20T12:17:59.819Z,128.73
2018-12-20T12:20:32.437Z,104.13
2018-12-20T12:23:04.889Z,108.53
2018-12-20T12:25:37.227Z,116.07
2018-12-20T12:28:09.683Z,112.80
2018-12-20T12:30:42.576Z,135.20
2018-12-20T12:33:15.237Z,125.97
2018-12-20T12:35:48.197Z,111.80
2018-12-20T12:38:21.018Z,115.70
2018-12-20T12:40:53.511Z,103.63
2018-12-20T12:43:25.542Z,113.60
2018-12-20T12:45:57.672Z,109.33
2018-12-20T12:48:30.416Z,106.03
2018-12-20T12:51:03.475Z,101.70
2018-12-20T12:53:36.082Z,100.10
2018-12-20T12:56:08.753Z,107.30
2018-12-20T12:58:41.871Z,97.07
2018-12-20T13:01:14.020Z,90.37
2018-12-20T13:03:47.103Z,105.97
2018-12-20T13:06:19.638Z,142.13
2018-12-20T13:08:53.374Z,128.90
2018-12-20T13:11:25.568Z,127.07
2018-12-20T13:13:58.315Z,112.27
2018-12-20T13:16:30.981Z,147.13
2018-12-20T13:19:03.502Z,134.23
2018-12-20T13:21:35.537Z,125.20
2018-12-20T13:24:07.661Z,106.77
2018-12-20T13:26:39.689Z,111.47
2018-12-20T13:29:12.807Z,105.83
2018-12-20T13:31:45.342Z,126.20
2018-12-20T13:34:18.005Z,111.47
2018-12-20T13:36:50.744Z,99.73
2018-12-20T13:39:23.489Z,112.93
2018-12-20T13:41:56.272Z,107.17
2018-12-20T13:44:29.490Z,107.53
2018-12-20T13:47:01.661Z,108.00
2018-12-20T13:49:34.018Z,115.40
2018-12-20T13:52:06.723Z,148.20
2018-12-20T13:54:39.227Z,122.03
2018-12-20T13:57:11.472Z,99.73
2018-12-20T13:59:44.021Z,117.53
2018-12-20T14:02:16.525Z,99.43
2018-12-20T14:04:48.781Z,117.07
2018-12-20T14:07:21.153Z,100.47
2018-12-20T14:09:53.443Z,106.10
2018-12-20T14:12:25.454Z,109.60
2018-12-20T14:14:57.563Z,116.27
2018-12-20T14:17:30.882Z,104.50
2018-12-20T14:20:03.491Z,106.03
2018-12-20T14:22:35.913Z,121.67
2018-12-20T14:25:08.624Z,99.87
2018-12-20T14:27:41.238Z,131.83
2018-12-20T14:30:14.788Z,110.33
2018-12-20T14:32:47.788Z,128.97
2018-12-20T14:35:20.228Z,143.10
2018-12-20T14:37:52.926Z,129.10
2018-12-20T14:40:25.145Z,128.03
2018-12-20T14:42:57.701Z,145.20
2018-12-20T14:45:30.093Z,137.50
2018-12-20T14:48:02.544Z,143.23
2018-12-20T14:50:35.080Z,138.77
2018-12-20T14:53:07.502Z,138.17
2018-12-20T14:55:39.842Z,144.60
2018-12-20T14:58:12.516Z,143.17
2018-12-20T15:00:45.092Z,146.23
2018-12-20T15:03:18.000Z,191.23
2018-12-20T15:05:50.347Z,158.07
2018-12-20T15:08:22.770Z,161.03
2018-12-20T15:10:55.211Z,156.23
2018-12-20T15:13:27.507Z,155.10
2018-12-20T15:16:00.590Z,193.80
2018-12-20T15:18:32.836Z,203.80
2018-12-20T15:21:04.965Z,179.78
2018-12-20T15:23:37.814Z,158.17
2018-12-20T15:26:10.155Z,156.80
2018-12-20T15:28:42.701Z,174.43
2018-12-20T15:31:15.813Z,169.47
2018-12-20T15:33:48.244Z,160.60
2018-12-20T15:36:20.835Z,176.90
2018-12-20T15:38:53.110Z,154.07
2018-12-20T15:41:25.551Z,141.53
2018-12-20T15:43:58.998Z,136.43
2018-12-20T15:46:31.507Z,133.73
2018-12-20T15:49:05.001Z,141.07
2018-12-20T15:51:37.625Z,111.47
2018-12-20T15:54:10.002Z,148.37
2018-12-20T15:56:42.241Z,171.33
2018-12-20T15:59:13.925Z,135.17
2018-12-20T16:01:45.964Z,135.40
2018-12-20T16:04:18.373Z,173.50
2018-12-20T16:06:50.520Z,132.73
2018-12-20T16:09:23.079Z,128.03
2018-12-20T16:11:56.804Z,149.00
2018-12-20T16:14:44.819Z,163.90
2018-12-20T16:17:17.161Z,144.40
2018-12-20T16:19:50.272Z,148.97
2018-12-20T16:22:25.549Z,116.67
2018-12-20T16:24:57.970Z,159.90
2018-12-20T16:27:30.796Z,138.73
2018-12-20T16:30:04.874Z,136.00
2018-12-20T16:32:37.881Z,158.13
2018-12-20T16:35:10.776Z,121.33
2018-12-20T16:37:43.240Z,134.93
2018-12-20T16:40:15.841Z,160.57
2018-12-20T16:42:48.184Z,146.57
2018-12-20T16:45:20.511Z,135.63
2018-12-20T16:47:52.803Z,134.57
2018-12-20T16:50:25.872Z,156.37
2018-12-20T16:52:58.216Z,132.73
2018-12-20T16:55:30.433Z,146.67
2018-12-20T16:58:03.007Z,157.07
2018-12-20T17:00:35.417Z,164.63
2018-12-20T17:03:07.636Z,206.23
2018-12-20T17:05:39.612Z,163.33
2018-12-20T17:08:12.206Z,206.13
2018-12-20T17:10:43.911Z,155.37
2018-12-20T17:13:16.865Z,167.37
2018-12-20T17:15:49.494Z,188.07
2018-12-20T17:18:21.803Z,167.17
2018-12-20T17:20:54.555Z,183.43
2018-12-20T17:23:35.405Z,194.20
2018-12-20T17:26:02.789Z,172.57
2018-12-20T17:28:35.533Z,173.17
2018-12-20T17:31:08.143Z,162.40
2018-12-20T17:33:40.305Z,173.87
2018-12-20T17:36:12.629Z,185.93
2018-12-20T17:38:46.594Z,140.47
2018-12-20T17:41:18.613Z,166.70
2018-12-20T17:43:51.109Z,147.47
2018-12-20T17:46:23.626Z,121.27
2018-12-20T17:48:56.139Z,285.10
2018-12-20T17:51:28.579Z,216.20
2018-12-20T17:54:00.992Z,161.70
2018-12-20T17:56:33.942Z,141.07
2018-12-20T17:59:06.379Z,143.93
2018-12-20T18:01:40.226Z,146.07
2018-12-20T18:04:12.941Z,158.73
2018-12-20T18:06:45.083Z,123.23
2018-12-20T18:09:17.517Z,156.43
2018-12-20T18:11:50.337Z,151.73
2018-12-20T18:14:22.322Z,157.57
2018-12-20T18:16:55.440Z,145.23
2018-12-20T18:19:28.425Z,154.20
2018-12-20T18:22:00.858Z,204.00
2018-12-20T18:24:33.212Z,167.83
2018-12-20T18:27:04.970Z,169.20
2018-12-20T18:29:37.799Z,139.60
2018-12-20T18:32:10.066Z,139.80
2018-12-20T18:34:43.525Z,144.47
2018-12-20T18:37:16.627Z,151.30
2018-12-20T18:39:50.147Z,138.43
2018-12-20T18:42:23.478Z,152.00
2018-12-20T18:44:56.442Z,211.97
2018-12-20T18:47:29.215Z,153.47
2018-12-20T18:50:02.109Z,128.13
2018-12-20T18:52:34.130Z,153.80
2018-12-20T18:55:06.938Z,147.23
2018-12-20T18:57:39.768Z,139.80
2018-12-20T19:00:12.873Z,161.77
2018-12-20T19:02:45.168Z,170.23
2018-12-20T19:05:17.531Z,159.47
2018-12-20T19:07:50.217Z,163.97
2018-12-20T19:10:23.278Z,140.53
2018-12-20T19:12:55.635Z,130.20
2018-12-20T19:15:28.086Z,137.50
2018-12-20T19:18:00.355Z,138.93
2018-12-20T19:20:32.880Z,171.47
2018-12-20T19:23:05.136Z,130.17
2018-12-20T19:25:38.296Z,159.40
2018-12-20T19:28:10.523Z,169.27
2018-12-20T19:30:42.796Z,142.30
2018-12-20T19:33:15.190Z,143.23
2018-12-20T19:35:47.784Z,130.87
2018-12-20T19:38:20.835Z,172.03
2018-12-20T19:40:52.840Z,138.43
2018-12-20T19:43:25.515Z,144.47
2018-12-20T19:45:59.299Z,145.53
2018-12-20T19:48:31.517Z,155.03
2018-12-20T19:51:04.373Z,145.50
2018-12-20T19:53:38.619Z,128.90
2018-12-20T19:56:10.362Z,141.63
2018-12-20T19:58:42.412Z,157.53
2018-12-20T20:01:15.490Z,149.73
2018-12-20T20:03:48.228Z,157.93
2018-12-20T20:06:21.377Z,170.50
2018-12-20T20:08:53.755Z,137.87
2018-12-20T20:11:26.003Z,147.00
2018-12-20T20:13:58.395Z,165.40
2018-12-20T20:16:30.762Z,151.03
2018-12-20T20:19:03.114Z,153.57
2018-12-20T20:21:35.651Z,169.40
2018-12-20T20:24:08.271Z,154.37
2018-12-20T20:26:40.445Z,151.23
2018-12-20T20:29:12.660Z,163.67
2018-12-20T20:31:46.411Z,140.27
2018-12-20T20:34:19.645Z,152.80
2018-12-20T20:36:52.428Z,153.90
2018-12-20T20:39:24.368Z,175.37
2018-12-20T20:41:56.638Z,181.33
2018-12-20T20:44:29.039Z,168.57
2018-12-20T20:47:01.225Z,195.03
2018-12-20T20:49:34.317Z,188.70
2018-12-20T20:52:06.648Z,181.70
2018-12-20T20:54:39.838Z,185.00
2018-12-20T20:57:12.251Z,175.27
2018-12-20T20:59:50.765Z,208.00
2018-12-20T21:02:18.485Z,191.37
2018-12-20T21:04:50.791Z,166.50
2018-12-20T21:07:23.360Z,188.40
2018-12-20T21:09:55.628Z,190.10
2018-12-20T21:12:27.873Z,190.63
2018-12-20T21:15:00.021Z,213.87
2018-12-20T21:17:32.012Z,195.73
2018-12-20T21:20:04.728Z,219.83
2018-12-20T21:22:36.906Z,206.90
2018-12-20T21:25:09.764Z,189.77
2018-12-20T21:27:41.848Z,210.27
2018-12-20T21:30:14.104Z,218.43
2018-12-20T21:32:46.146Z,185.77
2018-12-20T21:35:18.208Z,181.03
2018-12-20T21:37:50.382Z,148.97
2018-12-20T21:40:22.697Z,125.53
2018-12-20T21:42:54.833Z,146.50
2018-12-20T21:45:26.958Z,126.93
2018-12-20T21:47:59.458Z,129.03
2018-12-20T21:50:38.794Z,108.00
2018-12-20T21:53:06.485Z,128.23
2018-12-20T21:55:38.632Z,136.50
2018-12-20T21:58:10.562Z,125.73
2018-12-20T22:00:42.662Z,126.97
2018-12-20T22:03:14.605Z,119.17
2018-12-20T22:05:47.219Z,146.00
2018-12-20T22:08:19.192Z,132.37
2018-12-20T22:10:51.174Z,117.70
2018-12-20T22:13:23.061Z,129.43
2018-12-20T22:15:55.221Z,123.50
2018-12-20T22:18:26.952Z,129.70
2018-12-20T22:21:00.071Z,104.13
2018-12-20T22:23:32.293Z,104.57
2018-12-20T22:26:04.694Z,137.97
2018-12-20T22:28:36.642Z,106.37
2018-12-20T22:31:08.439Z,101.90
2018-12-20T22:33:40.595Z,117.60
2018-12-20T22:36:12.963Z,123.37
2018-12-20T22:38:45.006Z,107.20
2018-12-20T22:41:17.338Z,116.90
2018-12-20T22:43:49.854Z,110.80
2018-12-20T22:46:22.015Z,116.17
2018-12-20T22:48:54.206Z,97.47
2018-12-20T22:51:26.084Z,96.67
2018-12-20T22:53:58.421Z,88.40
2018-12-20T22:56:30.634Z,87.80
2018-12-20T22:59:03.053Z,86.07
2018-12-20T23:01:34.946Z,87.97
2018-12-20T23:04:07.110Z,86.97
2018-12-20T23:06:39.475Z,77.63
2018-12-20T23:09:11.435Z,83.33
2018-12-20T23:11:43.199Z,82.93
2018-12-20T23:14:15.272Z,81.07
2018-12-20T23:16:53.704Z,77.73
2018-12-20T23:19:21.431Z,85.00
2018-12-20T23:21:53.423Z,83.17
2018-12-20T23:24:25.539Z,82.37
2018-12-20T23:26:57.741Z,91.67
2018-12-20T23:29:29.644Z,88.13
2018-12-20T23:32:01.480Z,198.73
2018-12-20T23:34:33.639Z,112.00
2018-12-20T23:37:05.678Z,80.20
2018-12-20T23:39:37.655Z,80.53
2018-12-20T23:42:09.682Z,98.23
2018-12-20T23:44:41.640Z,77.73
2018-12-20T23:47:14.468Z,81.90
2018-12-20T23:49:46.862Z,82.40
2018-12-20T23:52:19.159Z,80.37
2018-12-20T23:54:51.548Z,79.03
2018-12-20T23:57:23.464Z,101.57
2018-12-20T23:59:55.382Z,79.47
